createdAt,value
2023-05-19T00:03:09.200Z,101348.63
2023-05-19T00:08:12.107Z,101353.52
2023-05-19T00:13:14.912Z,101353.90
2023-05-19T00:18:17.498Z,101350.63
2023-05-19T00:23:20.128Z,101349.44
2023-05-19T00:28:22.815Z,101340.41
2023-05-19T00:33:25.572Z,101337.29
2023-05-19T00:38:28.482Z,101336.41
2023-05-19T00:43:31.687Z,101329.93
2023-05-19T00:48:34.288Z,101329.55
2023-05-19T00:53:36.847Z,101324.30
2023-05-19T00:58:39.570Z,101323.09
2023-05-19T01:03:43.761Z,101318.04
2023-05-19T01:08:46.590Z,101318.73
2023-05-19T01:13:49.542Z,101316.69
2023-05-19T01:19:19.638Z,101317.59
2023-05-19T01:24:57.004Z,101320.39
2023-05-19T01:30:22.295Z,101322.98
2023-05-19T01:35:26.785Z,101325.56
2023-05-19T01:40:30.865Z,101323.76
2023-05-19T01:45:34.297Z,101314.20
2023-05-19T01:50:36.913Z,101314.91
2023-05-19T01:55:46.304Z,101322.23
2023-05-19T02:01:04.111Z,101324.29
2023-05-19T02:06:18.271Z,101318.16
2023-05-19T02:12:00.316Z,101322.46
2023-05-19T02:17:04.588Z,101325.58
2023-05-19T02:22:07.250Z,101325.23
2023-05-19T02:27:09.847Z,101330.83
2023-05-19T02:32:14.887Z,101329.64
2023-05-19T02:37:17.777Z,101332.23
2023-05-19T02:42:20.788Z,101326.63
2023-05-19T02:47:23.432Z,101326.27
2023-05-19T02:52:26.209Z,101325.77
2023-05-19T02:57:30.039Z,101323.50
2023-05-19T03:02:34.145Z,101319.28
2023-05-19T03:07:36.960Z,101318.85
2023-05-19T03:12:39.733Z,101316.17
2023-05-19T03:17:42.739Z,101322.70
2023-05-19T03:22:45.340Z,101316.20
2023-05-19T03:27:48.045Z,101314.36
2023-05-19T03:32:52.065Z,101317.53
2023-05-19T03:37:54.858Z,101314.36
2023-05-19T03:42:57.454Z,101317.27
2023-05-19T03:48:00.073Z,101316.54
2023-05-19T03:53:02.690Z,101313.64
2023-05-19T03:58:05.305Z,101316.89
2023-05-19T04:03:08.458Z,101314.19
2023-05-19T04:08:11.179Z,101313.54
2023-05-19T04:13:13.772Z,101315.87
2023-05-19T04:18:16.384Z,101312.14
2023-05-19T04:23:18.960Z,101317.48
2023-05-19T04:28:21.649Z,101323.08
2023-05-19T04:33:24.664Z,101320.98
2023-05-19T04:38:29.966Z,101325.48
2023-05-19T04:43:32.528Z,101332.09
2023-05-19T04:48:35.164Z,101334.33
2023-05-19T04:53:40.179Z,101336.20
2023-05-19T04:58:44.826Z,101336.98
2023-05-19T05:03:47.626Z,101342.68
2023-05-19T05:08:52.183Z,101343.91
2023-05-19T05:13:58.030Z,101350.09
2023-05-19T05:19:01.647Z,101347.25
2023-05-19T05:24:04.728Z,101345.20
2023-05-19T05:29:09.262Z,101345.88
2023-05-19T05:34:11.904Z,101339.54
2023-05-19T05:39:14.518Z,101341.35
2023-05-19T05:44:17.198Z,101343.63
2023-05-19T05:49:20.394Z,101345.98
2023-05-19T05:54:24.802Z,101349.65
2023-05-19T05:59:27.550Z,101344.70
2023-05-19T06:04:31.202Z,101349.40
2023-05-19T06:09:34.099Z,101350.40
2023-05-19T06:14:36.760Z,101356.13
2023-05-19T06:19:39.384Z,101360.04
2023-05-19T06:24:42.038Z,101358.64
2023-05-19T06:29:44.617Z,101359.84
2023-05-19T06:34:53.956Z,101358.89
2023-05-19T06:39:56.540Z,101360.04
2023-05-19T06:44:59.259Z,101363.58
2023-05-19T06:50:01.939Z,101361.88
2023-05-19T06:55:07.728Z,101356.97
2023-05-19T07:00:13.860Z,101368.41
2023-05-19T07:05:17.947Z,101369.18
2023-05-19T07:10:21.925Z,101373.89
2023-05-19T07:15:24.513Z,101379.92
2023-05-19T07:20:27.154Z,101380.13
2023-05-19T07:25:30.642Z,101386.41
2023-05-19T07:30:33.610Z,101387.64
2023-05-19T07:35:36.571Z,101391.56
2023-05-19T07:40:39.194Z,101390.38
2023-05-19T07:45:41.822Z,101395.93
2023-05-19T07:50:44.396Z,101391.80
2023-05-19T07:55:47.097Z,101398.64
2023-05-19T08:00:49.734Z,101398.91
2023-05-19T08:05:52.529Z,101404.38
2023-05-19T08:10:55.459Z,101401.06
2023-05-19T08:15:59.907Z,101401.17
2023-05-19T08:21:02.702Z,101387.77
2023-05-19T08:26:05.740Z,101387.14
2023-05-19T08:31:08.399Z,101388.74
2023-05-19T08:36:11.705Z,101390.94
2023-05-19T08:41:14.319Z,101390.03
2023-05-19T08:46:17.122Z,101390.27
2023-05-19T08:51:39.053Z,101386.43
2023-05-19T08:56:45.682Z,101385.54
2023-05-19T09:01:49.891Z,101385.81
2023-05-19T09:06:52.540Z,101389.05
2023-05-19T09:11:55.185Z,101393.08
2023-05-19T09:16:57.876Z,101392.20
2023-05-19T09:22:03.361Z,101392.04
2023-05-19T09:27:06.187Z,101396.25
2023-05-19T09:32:08.894Z,101391.02
2023-05-19T09:37:13.078Z,101389.35
2023-05-19T09:42:16.714Z,101388.05
2023-05-19T09:47:19.275Z,101386.32
2023-05-19T09:52:22.192Z,101385.15
2023-05-19T09:57:28.422Z,101385.48
2023-05-19T10:02:32.196Z,101380.27
2023-05-19T10:07:35.153Z,101377.86
2023-05-19T10:12:39.278Z,101381.99
2023-05-19T10:17:43.715Z,101377.62
2023-05-19T10:22:46.768Z,101380.02
2023-05-19T10:27:58.390Z,101385.21
2023-05-19T10:33:03.756Z,101388.91
2023-05-19T10:38:42.737Z,101390.08
2023-05-19T10:44:34.394Z,101381.55
2023-05-19T10:49:37.337Z,101380.20
2023-05-19T10:54:46.899Z,101380.44
2023-05-19T10:59:49.935Z,101386.27
2023-05-19T11:04:53.450Z,101380.64
2023-05-19T11:09:56.047Z,101386.49
2023-05-19T11:14:59.372Z,101381.99
2023-05-19T11:20:01.953Z,101375.94
2023-05-19T11:25:05.228Z,101371.98
2023-05-19T11:30:09.319Z,101363.29
2023-05-19T11:35:12.462Z,101362.77
2023-05-19T11:40:15.724Z,101356.58
2023-05-19T11:45:27.323Z,101363.56
2023-05-19T11:50:31.927Z,101366.36
2023-05-19T11:55:34.576Z,101375.48
2023-05-19T12:00:40.740Z,101375.26
2023-05-19T12:05:46.858Z,101376.67
2023-05-19T12:10:53.203Z,101370.17
2023-05-19T12:22:56.538Z,101363.66
2023-05-19T12:28:00.731Z,101364.83
2023-05-19T12:33:03.600Z,101372.10
2023-05-19T12:38:06.767Z,101372.21
2023-05-19T12:43:19.081Z,101371.58
2023-05-19T12:48:22.887Z,101369.11
2023-05-19T12:53:28.103Z,101379.88
2023-05-19T12:58:34.268Z,101380.45
2023-05-19T13:03:43.869Z,101370.63
2023-05-19T13:08:47.321Z,101367.70
2023-05-19T13:13:50.049Z,101362.20
2023-05-19T13:18:53.550Z,101348.96
2023-05-19T13:23:56.291Z,101341.83
2023-05-19T13:28:59.029Z,101337.58
2023-05-19T13:34:02.634Z,101332.24
2023-05-19T13:39:05.460Z,101327.59
2023-05-19T13:44:08.056Z,101329.36
2023-05-19T13:49:10.618Z,101342.55
2023-05-19T13:54:13.208Z,101345.56
2023-05-19T13:59:17.290Z,101343.46
2023-05-19T14:04:20.067Z,101348.80
2023-05-19T14:09:23.121Z,101351.02
2023-05-19T14:14:25.918Z,101343.11
2023-05-19T14:19:30.282Z,101335.39
2023-05-19T14:24:33.050Z,101328.91
2023-05-19T14:29:35.799Z,101320.80
2023-05-19T14:34:38.584Z,101312.36
2023-05-19T14:39:41.268Z,101317.95
2023-05-19T14:44:44.006Z,101320.54
2023-05-19T14:49:46.829Z,101315.35
2023-05-19T14:54:49.485Z,101332.77
2023-05-19T14:59:52.087Z,101331.66
2023-05-19T15:04:54.651Z,101327.13
2023-05-19T15:09:57.273Z,101325.23
2023-05-19T15:14:59.893Z,101329.15
2023-05-19T15:20:02.655Z,101328.04
2023-05-19T15:25:05.951Z,101322.67
2023-05-19T15:30:08.811Z,101309.64
2023-05-19T15:35:11.475Z,101314.63
2023-05-19T15:40:14.192Z,101310.30
2023-05-19T15:45:16.934Z,101298.64
2023-05-19T15:50:19.601Z,101302.69
2023-05-19T15:55:22.240Z,101298.22
2023-05-19T16:00:25.057Z,101298.55
2023-05-19T16:05:27.833Z,101296.66
2023-05-19T16:10:30.557Z,101297.54
2023-05-19T16:15:33.288Z,101293.36
2023-05-19T16:20:35.996Z,101296.58
2023-05-19T16:25:38.731Z,101297.64
2023-05-19T16:30:41.415Z,101297.91
2023-05-19T16:35:44.042Z,101298.70
2023-05-19T16:40:46.617Z,101297.73
2023-05-19T16:45:49.423Z,101297.41
2023-05-19T16:50:52.448Z,101297.88
2023-05-19T16:55:55.356Z,101296.89
2023-05-19T17:00:58.096Z,101298.64
2023-05-19T17:06:00.965Z,101297.52
2023-05-19T17:11:03.574Z,101294.73
2023-05-19T17:16:06.349Z,101291.04
2023-05-19T17:21:09.107Z,101293.29
2023-05-19T17:26:11.989Z,101289.27
2023-05-19T17:31:15.846Z,101288.30
2023-05-19T17:36:18.630Z,101290.72
2023-05-19T17:41:21.846Z,101292.14
2023-05-19T17:46:24.501Z,101293.85
2023-05-19T17:51:27.788Z,101296.02
2023-05-19T17:56:33.603Z,101294.41
2023-05-19T18:01:36.573Z,101295.94
2023-05-19T18:06:40.672Z,101301.60
2023-05-19T18:11:43.591Z,101300.27
2023-05-19T18:16:47.360Z,101300.05
2023-05-19T18:21:50.096Z,101296.06
2023-05-19T18:26:52.754Z,101296.27
2023-05-19T18:31:55.587Z,101297.86
2023-05-19T18:36:58.211Z,101299.73
2023-05-19T18:42:01.933Z,101306.17
2023-05-19T18:47:05.046Z,101308.59
2023-05-19T18:52:08.070Z,101308.93
2023-05-19T18:57:10.832Z,101312.09
2023-05-19T19:02:13.395Z,101312.90
2023-05-19T19:07:16.222Z,101312.73
2023-05-19T19:12:20.474Z,101317.34
2023-05-19T19:17:23.508Z,101320.42
2023-05-19T19:22:26.512Z,101325.40
2023-05-19T19:27:31.230Z,101324.27
2023-05-19T19:32:33.954Z,101327.88
2023-05-19T19:37:36.662Z,101325.34
2023-05-19T19:42:40.307Z,101327.73
2023-05-19T19:47:43.029Z,101334.67
2023-05-19T19:52:45.702Z,101334.41
2023-05-19T19:57:49.579Z,101328.00
2023-05-19T20:03:04.463Z,101336.42
2023-05-19T20:08:09.028Z,101343.38
2023-05-19T20:13:11.717Z,101341.96
2023-05-19T20:18:14.361Z,101339.36
2023-05-19T20:23:17.198Z,101336.23
2023-05-19T20:28:21.309Z,101340.66
2023-05-19T20:33:25.694Z,101344.55
2023-05-19T20:38:28.324Z,101343.51
2023-05-19T20:43:32.200Z,101340.30
2023-05-19T20:48:34.747Z,101340.48
2023-05-19T20:53:37.526Z,101336.48
2023-05-19T20:58:40.140Z,101334.03
2023-05-19T21:03:42.719Z,101325.83
2023-05-19T21:08:45.427Z,101321.73
2023-05-19T21:13:48.053Z,101323.83
2023-05-19T21:18:50.900Z,101325.82
2023-05-19T21:23:53.558Z,101324.82
2023-05-19T21:28:56.167Z,101326.56
2023-05-19T21:33:58.870Z,101326.59
2023-05-19T21:39:01.563Z,101327.79
2023-05-19T21:44:04.339Z,101330.10
2023-05-19T21:49:08.631Z,101336.17
2023-05-19T21:54:11.419Z,101333.08
2023-05-19T21:59:14.059Z,101328.80
2023-05-19T22:04:18.513Z,101334.02
2023-05-19T22:09:21.664Z,101335.23
2023-05-19T22:14:24.364Z,101329.44
2023-05-19T22:19:27.047Z,101325.27
2023-05-19T22:24:29.739Z,101323.69
2023-05-19T22:29:32.907Z,101321.61
2023-05-19T22:34:35.589Z,101325.70
2023-05-19T22:39:39.001Z,101326.90
2023-05-19T22:44:43.356Z,101331.44
2023-05-19T22:49:46.314Z,101329.55
2023-05-19T22:54:48.945Z,101332.23
2023-05-19T22:59:51.522Z,101330.15
2023-05-19T23:04:54.144Z,101329.27
2023-05-19T23:09:56.761Z,101328.28
2023-05-19T23:14:59.459Z,101323.94
2023-05-19T23:20:02.497Z,101320.42
2023-05-19T23:25:07.684Z,101323.44
2023-05-19T23:30:10.767Z,101319.39
2023-05-19T23:35:15.737Z,101319.21
2023-05-19T23:40:18.360Z,101325.67
2023-05-19T23:45:20.968Z,101324.78
2023-05-19T23:50:23.722Z,101323.77
2023-05-19T23:55:26.301Z,101321.86
